»·PEaware :: N84GU KSAD-KTUS

N84GU :: KSAD-KTUS

FLIGHT INFORMATION

Flight Status: Arrived
Operator: Privately registered:
United States
More flights under this callsign
Pilot: David F. (21030)
Aircraft: Unknown
(C90)
More flights by this aircraft type
Origin: KSAD Safford Regl
United States
Destination: KTUS Tucson Intl
United States
More flights between these airports :: More routes between these airports
Route: +SSO V16 TUS KTUS
File this flight plan on PilotEdge
Remarks:
Altitude:
(Current/Filed)
12,000ft
Speed:
(Current/Filed)
220kts
Departed: 24-May-19 12:39 PM
Arrived: 24-May-19 01:20 PM
Distance/Time
Traveled:
79nm/0:40
Distance/Time
To Go:
Arrived

Flight Plot

Page will automatically refresh every two minutes.

Flight plan parsing failed; only flown route is shown


Map Options




Map Legend


Flown Route
Filed Route
Departure Airport
Arrival Airport
Navaid (VOR, NDB)
Fix

Horizontal Profiles

Position Reports

Time Latitude Longitude Heading Altitude Ground
Speed
24-May-19 12:30 32.852363 -109.638828 87 3165ft 0kts
24-May-19 12:31 32.852363 -109.638828 87 3165ft 0kts
24-May-19 12:32 32.852363 -109.638828 87 3165ft 0kts
24-May-19 12:33 32.852363 -109.638828 87 3165ft 0kts
24-May-19 12:34 32.852363 -109.638828 87 3165ft 0kts
24-May-19 12:35 32.852363 -109.638828 87 3165ft 0kts
24-May-19 12:36 32.853411 -109.642413 303 3158ft 10kts
24-May-19 12:37 32.853537 -109.642514 345 3159ft 0kts
24-May-19 12:38 32.853974 -109.630220 90 3230ft 120kts
24-May-19 12:39 32.836862 -109.594828 142 4543ft 142kts
24-May-19 12:40 32.801944 -109.572221 153 5927ft 148kts
24-May-19 12:41 32.764818 -109.550307 151 7117ft 148kts
24-May-19 12:42 32.726729 -109.534690 164 8263ft 144kts
24-May-19 12:43 32.689058 -109.517863 159 9400ft 145kts
24-May-19 12:44 32.652580 -109.498442 157 10503ft 142kts
24-May-19 12:45 32.617544 -109.478245 155 11517ft 138kts
24-May-19 12:46 32.580112 -109.455876 154 12015ft 177kts
24-May-19 12:47 32.531520 -109.426073 153 12004ft 209kts
24-May-19 12:48 32.478358 -109.393063 153 12001ft 219kts
24-May-19 12:49 32.423835 -109.359175 153 12000ft 223kts
24-May-19 12:50 32.368573 -109.324934 153 11999ft 224kts
24-May-19 12:51 32.313305 -109.290851 153 11999ft 224kts
24-May-19 12:52 32.267708 -109.297555 255 12949ft 188kts
24-May-19 12:53 32.259518 -109.364024 259 12581ft 231kts
24-May-19 12:54 32.251343 -109.443797 261 12012ft 241kts
24-May-19 12:55 32.243580 -109.521194 260 12010ft 234kts
24-May-19 12:56 32.235897 -109.597170 260 12006ft 232kts
24-May-19 12:57 32.228225 -109.672585 260 12000ft 231kts
24-May-19 12:58 32.220511 -109.747985 260 12007ft 230kts
24-May-19 12:59 32.212751 -109.823394 260 12019ft 230kts
24-May-19 13:00 32.204966 -109.898600 260 12033ft 230kts
24-May-19 13:01 32.197130 -109.973852 260 12040ft 230kts
24-May-19 13:02 32.189253 -110.049061 260 12041ft 230kts
24-May-19 13:03 32.181326 -110.124310 260 12044ft 230kts
24-May-19 13:04 32.173382 -110.199279 260 12039ft 231kts
24-May-19 13:05 32.165351 -110.274643 260 12020ft 231kts
24-May-19 13:06 32.155963 -110.349790 262 12001ft 231kts
24-May-19 13:07 32.149397 -110.425634 260 11984ft 231kts
24-May-19 13:08 32.141292 -110.501324 260 11985ft 231kts
24-May-19 13:09 32.133124 -110.576862 260 11984ft 231kts
24-May-19 13:10 32.110482 -110.644231 200 10679ft 271kts
24-May-19 13:11 32.036138 -110.664972 196 9028ft 259kts
24-May-19 13:12 31.984664 -110.688727 264 7743ft 179kts
24-May-19 13:13 31.985278 -110.745027 287 6267ft 161kts
24-May-19 13:14 32.001339 -110.793960 300 5517ft 168kts
24-May-19 13:15 32.029974 -110.836074 308 4933ft 178kts
24-May-19 13:16 32.058341 -110.870736 312 4221ft 125kts
24-May-19 13:17 32.082017 -110.900248 312 3341ft 135kts
24-May-19 13:18 32.103890 -110.925114 314 2641ft 55kts
24-May-19 13:19 32.109909 -110.929592 313 2626ft 23kts
24-May-19 13:20 32.116145 -110.936918 315 2606ft 35kts
24-May-19 13:21 32.123092 -110.945028 320 2579ft 34kts

Navigation Log

Ident Type
Flight plan parsing failed, navigation log unavailable